<?xml version="1.0" encoding="UTF-8" standalone="no" ?>
<gpx xmlns="http://www.topografix.com/GPX/1/1" xmlns:xsi="http://www.w3.org/2001/XMLSchema-instance" xsi:schemaLocation="http://www.topografix.com/GPX/1/1 http://www.topografix.com/GPX/1/1/gpx.xsd" version="1.1" creator="VisuGPX - https://www.visugpx.com">
  <metadata>
    <name>07 - Saint-Félicien circuits en partant de l'Etape cavalière du Balayn </name>
    <desc><![CDATA[Ces itinéraires font partie de la collection de EquiLiberté : www.equiliberte.org Ils sont proposés par 07410 L'Étape Cavalière du Balayn à St Félicien. http://etapecavalieredubalayn.fr/index.php/contact-reservation/ Circuits NON ACCESSIBLE aux attelages ]]></desc>
  </metadata>
  <trk>
    <name><![CDATA[07 - St Félicien : Boucle de Vaudevant]]></name>
    <trkseg>
      <trkpt lat="45.09416" lon="4.65226">
        <ele>618</ele>
        <time>2019-10-12T15:41:10 02:00</time>
      </trkpt>
      <trkpt lat="45.09416" lon="4.65226">
        <ele>618</ele>
        <time>2019-10-12T15:41:10 02:00</time>
      </trkpt>
      <trkpt lat="45.09419" lon="4.652">
        <ele>618</ele>
        <time>2019-10-12T15:41:15 02:00</time>
      </trkpt>
      <trkpt lat="45.09446" lon="4.65245">
        <ele>612</ele>
        <time>2019-10-12T15:41:20 02:00</time>
      </trkpt>
      <trkpt lat="45.09498" lon="4.65136">
        <ele>612</ele>
        <time>2019-10-12T15:41:25 02:00</time>
      </trkpt>
      <trkpt lat="45.09562" lon="4.65076">
        <ele>610</ele>
        <time>2019-10-12T15:41:30 02:00</time>
      </trkpt>
      <trkpt lat="45.09598" lon="4.65013">
        <ele>614</ele>
        <time>2019-10-12T15:41:35 02:00</time>
      </trkpt>
      <trkpt lat="45.09628" lon="4.64928">
        <ele>616</ele>
        <time>2019-10-12T15:41:40 02:00</time>
      </trkpt>
      <trkpt lat="45.09639" lon="4.649">
        <ele>616</ele>
        <time>2019-10-12T15:41:45 02:00</time>
      </trkpt>
      <trkpt lat="45.0959" lon="4.6485">
        <ele>621</ele>
        <time>2019-10-12T15:41:50 02:00</time>
      </trkpt>
      <trkpt lat="45.09572" lon="4.64829">
        <ele>623</ele>
        <time>2019-10-12T15:41:55 02:00</time>
      </trkpt>
      <trkpt lat="45.09574" lon="4.64741">
        <ele>625</ele>
        <time>2019-10-12T15:42:00 02:00</time>
      </trkpt>
      <trkpt lat="45.09566" lon="4.647">
        <ele>625</ele>
        <time>2019-10-12T15:42:05 02:00</time>
      </trkpt>
      <trkpt lat="45.09545" lon="4.64634">
        <ele>623</ele>
        <time>2019-10-12T15:42:10 02:00</time>
      </trkpt>
      <trkpt lat="45.09545" lon="4.64593">
        <ele>619</ele>
        <time>2019-10-12T15:42:15 02:00</time>
      </trkpt>
      <trkpt lat="45.09605" lon="4.64599">
        <ele>615</ele>
        <time>2019-10-12T15:42:20 02:00</time>
      </trkpt>
      <trkpt lat="45.09646" lon="4.64601">
        <ele>615</ele>
        <time>2019-10-12T15:42:25 02:00</time>
      </trkpt>
      <trkpt lat="45.09643" lon="4.64558">
        <ele>613</ele>
        <time>2019-10-12T15:42:30 02:00</time>
      </trkpt>
      <trkpt lat="45.0966" lon="4.64496">
        <ele>612</ele>
        <time>2019-10-12T15:42:35 02:00</time>
      </trkpt>
      <trkpt lat="45.09668" lon="4.64434">
        <ele>607</ele>
        <time>2019-10-12T15:42:40 02:00</time>
      </trkpt>
      <trkpt lat="45.09705" lon="4.64361">
        <ele>608</ele>
        <time>2019-10-12T15:42:45 02:00</time>
      </trkpt>
      <trkpt lat="45.09696" lon="4.64329">
        <ele>604</ele>
        <time>2019-10-12T15:42:50 02:00</time>
      </trkpt>
      <trkpt lat="45.0966" lon="4.6423">
        <ele>591</ele>
        <time>2019-10-12T15:42:55 02:00</time>
      </trkpt>
      <trkpt lat="45.0966" lon="4.64204">
        <ele>589</ele>
        <time>2019-10-12T15:43:00 02:00</time>
      </trkpt>
      <trkpt lat="45.0969" lon="4.64157">
        <ele>591</ele>
        <time>2019-10-12T15:43:05 02:00</time>
      </trkpt>
      <trkpt lat="45.0971" lon="4.64131">
        <ele>593</ele>
        <time>2019-10-12T15:43:10 02:00</time>
      </trkpt>
      <trkpt lat="45.09725" lon="4.64069">
        <ele>591</ele>
        <time>2019-10-12T15:43:15 02:00</time>
      </trkpt>
      <trkpt lat="45.09713" lon="4.64018">
        <ele>587</ele>
        <time>2019-10-12T15:43:20 02:00</time>
      </trkpt>
      <trkpt lat="45.09692" lon="4.63981">
        <ele>581</ele>
        <time>2019-10-12T15:43:25 02:00</time>
      </trkpt>
      <trkpt lat="45.09689" lon="4.6387">
        <ele>580</ele>
        <time>2019-10-12T15:43:30 02:00</time>
      </trkpt>
      <trkpt lat="45.09687" lon="4.63786">
        <ele>577</ele>
        <time>2019-10-12T15:43:35 02:00</time>
      </trkpt>
      <trkpt lat="45.09698" lon="4.63722">
        <ele>576</ele>
        <time>2019-10-12T15:43:40 02:00</time>
      </trkpt>
      <trkpt lat="45.0971" lon="4.63677">
        <ele>574</ele>
        <time>2019-10-12T15:43:45 02:00</time>
      </trkpt>
      <trkpt lat="45.09724" lon="4.63638">
        <ele>572</ele>
        <time>2019-10-12T15:43:50 02:00</time>
      </trkpt>
      <trkpt lat="45.09746" lon="4.63621">
        <ele>571</ele>
        <time>2019-10-12T15:43:55 02:00</time>
      </trkpt>
      <trkpt lat="45.09778" lon="4.63599">
        <ele>574</ele>
        <time>2019-10-12T15:44:00 02:00</time>
      </trkpt>
      <trkpt lat="45.09787" lon="4.63554">
        <ele>574</ele>
        <time>2019-10-12T15:44:05 02:00</time>
      </trkpt>
      <trkpt lat="45.09774" lon="4.63477">
        <ele>572</ele>
        <time>2019-10-12T15:44:10 02:00</time>
      </trkpt>
      <trkpt lat="45.09774" lon="4.63419">
        <ele>573</ele>
        <time>2019-10-12T15:44:15 02:00</time>
      </trkpt>
      <trkpt lat="45.09795" lon="4.6335">
        <ele>573</ele>
        <time>2019-10-12T15:44:20 02:00</time>
      </trkpt>
      <trkpt lat="45.0983" lon="4.6328">
        <ele>574</ele>
        <time>2019-10-12T15:44:25 02:00</time>
      </trkpt>
      <trkpt lat="45.09845" lon="4.63226">
        <ele>569</ele>
        <time>2019-10-12T15:44:30 02:00</time>
      </trkpt>
      <trkpt lat="45.09868" lon="4.63193">
        <ele>568</ele>
        <time>2019-10-12T15:44:35 02:00</time>
      </trkpt>
      <trkpt lat="45.0991" lon="4.63154">
        <ele>568</ele>
        <time>2019-10-12T15:44:40 02:00</time>
      </trkpt>
      <trkpt lat="45.09954" lon="4.63085">
        <ele>562</ele>
        <time>2019-10-12T15:44:45 02:00</time>
      </trkpt>
      <trkpt lat="45.09983" lon="4.63048">
        <ele>564</ele>
        <time>2019-10-12T15:44:50 02:00</time>
      </trkpt>
      <trkpt lat="45.09999" lon="4.63034">
        <ele>566</ele>
        <time>2019-10-12T15:44:55 02:00</time>
      </trkpt>
      <trkpt lat="45.1001" lon="4.63029">
        <ele>568</ele>
        <time>2019-10-12T15:45:00 02:00</time>
      </trkpt>
      <trkpt lat="45.10014" lon="4.62979">
        <ele>567</ele>
        <time>2019-10-12T15:45:05 02:00</time>
      </trkpt>
      <trkpt lat="45.10008" lon="4.62957">
        <ele>568</ele>
        <time>2019-10-12T15:45:10 02:00</time>
      </trkpt>
      <trkpt lat="45.1001" lon="4.62956">
        <ele>569</ele>
        <time>2019-10-12T15:45:15 02:00</time>
      </trkpt>
      <trkpt lat="45.09986" lon="4.62931">
        <ele>567</ele>
        <time>2019-10-12T15:45:20 02:00</time>
      </trkpt>
      <trkpt lat="45.09964" lon="4.62915">
        <ele>565</ele>
        <time>2019-10-12T15:45:25 02:00</time>
      </trkpt>
      <trkpt lat="45.09866" lon="4.6277">
        <ele>565</ele>
        <time>2019-10-12T15:45:30 02:00</time>
      </trkpt>
      <trkpt lat="45.09855" lon="4.62753">
        <ele>563</ele>
        <time>2019-10-12T15:45:35 02:00</time>
      </trkpt>
      <trkpt lat="45.09849" lon="4.62715">
        <ele>560</ele>
        <time>2019-10-12T15:45:40 02:00</time>
      </trkpt>
      <trkpt lat="45.09855" lon="4.62696">
        <ele>562</ele>
        <time>2019-10-12T15:45:45 02:00</time>
      </trkpt>
      <trkpt lat="45.09841" lon="4.62627">
        <ele>553</ele>
        <time>2019-10-12T15:45:50 02:00</time>
      </trkpt>
      <trkpt lat="45.09843" lon="4.62544">
        <ele>550</ele>
        <time>2019-10-12T15:45:55 02:00</time>
      </trkpt>
      <trkpt lat="45.09848" lon="4.62512">
        <ele>550</ele>
        <time>2019-10-12T15:46:00 02:00</time>
      </trkpt>
      <trkpt lat="45.09848" lon="4.62509">
        <ele>550</ele>
        <time>2019-10-12T15:46:05 02:00</time>
      </trkpt>
      <trkpt lat="45.09805" lon="4.62521">
        <ele>553</ele>
        <time>2019-10-12T15:46:10 02:00</time>
      </trkpt>
      <trkpt lat="45.09803" lon="4.6252">
        <ele>553</ele>
        <time>2019-10-12T15:46:15 02:00</time>
      </trkpt>
      <trkpt lat="45.09816" lon="4.62488">
        <ele>554</ele>
        <time>2019-10-12T15:46:20 02:00</time>
      </trkpt>
      <trkpt lat="45.09865" lon="4.62434">
        <ele>558</ele>
        <time>2019-10-12T15:46:25 02:00</time>
      </trkpt>
      <trkpt lat="45.09887" lon="4.62411">
        <ele>557</ele>
        <time>2019-10-12T15:46:30 02:00</time>
      </trkpt>
      <trkpt lat="45.09947" lon="4.62376">
        <ele>559</ele>
        <time>2019-10-12T15:46:35 02:00</time>
      </trkpt>
      <trkpt lat="45.09999" lon="4.62329">
        <ele>560</ele>
        <time>2019-10-12T15:46:40 02:00</time>
      </trkpt>
      <trkpt lat="45.10061" lon="4.62287">
        <ele>563</ele>
        <time>2019-10-12T15:46:45 02:00</time>
      </trkpt>
      <trkpt lat="45.10086" lon="4.62256">
        <ele>564</ele>
        <time>2019-10-12T15:46:50 02:00</time>
      </trkpt>
      <trkpt lat="45.10143" lon="4.62129">
        <ele>578</ele>
        <time>2019-10-12T15:46:55 02:00</time>
      </trkpt>
      <trkpt lat="45.10173" lon="4.6206">
        <ele>585</ele>
        <time>2019-10-12T15:47:00 02:00</time>
      </trkpt>
      <trkpt lat="45.10204" lon="4.62023">
        <ele>588</ele>
        <time>2019-10-12T15:47:05 02:00</time>
      </trkpt>
      <trkpt lat="45.10236" lon="4.62006">
        <ele>585</ele>
        <time>2019-10-12T15:47:10 02:00</time>
      </trkpt>
      <trkpt lat="45.1027" lon="4.61969">
        <ele>589</ele>
        <time>2019-10-12T15:47:15 02:00</time>
      </trkpt>
      <trkpt lat="45.10287" lon="4.61954">
        <ele>592</ele>
        <time>2019-10-12T15:47:20 02:00</time>
      </trkpt>
      <trkpt lat="45.10318" lon="4.61949">
        <ele>592</ele>
        <time>2019-10-12T15:47:25 02:00</time>
      </trkpt>
      <trkpt lat="45.10319" lon="4.61937">
        <ele>594</ele>
        <time>2019-10-12T15:47:30 02:00</time>
      </trkpt>
      <trkpt lat="45.10353" lon="4.61936">
        <ele>592</ele>
        <time>2019-10-12T15:47:35 02:00</time>
      </trkpt>
      <trkpt lat="45.10348" lon="4.61901">
        <ele>596</ele>
        <time>2019-10-12T15:47:40 02:00</time>
      </trkpt>
      <trkpt lat="45.10339" lon="4.61882">
        <ele>598</ele>
        <time>2019-10-12T15:47:45 02:00</time>
      </trkpt>
      <trkpt lat="45.10352" lon="4.61847">
        <ele>598</ele>
        <time>2019-10-12T15:47:50 02:00</time>
      </trkpt>
      <trkpt lat="45.10339" lon="4.61819">
        <ele>601</ele>
        <time>2019-10-12T15:47:55 02:00</time>
      </trkpt>
      <trkpt lat="45.10318" lon="4.61758">
        <ele>607</ele>
        <time>2019-10-12T15:48:00 02:00</time>
      </trkpt>
      <trkpt lat="45.10284" lon="4.61768">
        <ele>613</ele>
        <time>2019-10-12T15:48:05 02:00</time>
      </trkpt>
      <trkpt lat="45.10269" lon="4.6177">
        <ele>617</ele>
        <time>2019-10-12T15:48:10 02:00</time>
      </trkpt>
      <trkpt lat="45.10212" lon="4.61814">
        <ele>627</ele>
        <time>2019-10-12T15:48:15 02:00</time>
      </trkpt>
      <trkpt lat="45.10169" lon="4.61852">
        <ele>636</ele>
        <time>2019-10-12T15:48:20 02:00</time>
      </trkpt>
      <trkpt lat="45.1013" lon="4.61896">
        <ele>639</ele>
        <time>2019-10-12T15:48:25 02:00</time>
      </trkpt>
      <trkpt lat="45.10097" lon="4.61945">
        <ele>641</ele>
        <time>2019-10-12T15:48:30 02:00</time>
      </trkpt>
      <trkpt lat="45.10052" lon="4.61972">
        <ele>642</ele>
        <time>2019-10-12T15:48:35 02:00</time>
      </trkpt>
      <trkpt lat="45.10013" lon="4.6198">
        <ele>643</ele>
        <time>2019-10-12T15:48:40 02:00</time>
      </trkpt>
      <trkpt lat="45.09992" lon="4.61964">
        <ele>647</ele>
        <time>2019-10-12T15:48:45 02:00</time>
      </trkpt>
      <trkpt lat="45.09963" lon="4.61934">
        <ele>652</ele>
        <time>2019-10-12T15:48:50 02:00</time>
      </trkpt>
      <trkpt lat="45.09919" lon="4.61933">
        <ele>653</ele>
        <time>2019-10-12T15:48:55 02:00</time>
      </trkpt>
      <trkpt lat="45.09864" lon="4.62008">
        <ele>650</ele>
        <time>2019-10-12T15:49:00 02:00</time>
      </trkpt>
      <trkpt lat="45.09843" lon="4.62018">
        <ele>653</ele>
        <time>2019-10-12T15:49:05 02:00</time>
      </trkpt>
      <trkpt lat="45.0981" lon="4.61998">
        <ele>659</ele>
        <time>2019-10-12T15:49:10 02:00</time>
      </trkpt>
      <trkpt lat="45.09778" lon="4.61981">
        <ele>664</ele>
        <time>2019-10-12T15:49:15 02:00</time>
      </trkpt>
      <trkpt lat="45.09743" lon="4.61971">
        <ele>666</ele>
        <time>2019-10-12T15:49:20 02:00</time>
      </trkpt>
      <trkpt lat="45.09718" lon="4.61952">
        <ele>667</ele>
        <time>2019-10-12T15:49:25 02:00</time>
      </trkpt>
      <trkpt lat="45.09709" lon="4.61923">
        <ele>671</ele>
        <time>2019-10-12T15:49:30 02:00</time>
      </trkpt>
      <trkpt lat="45.09866" lon="4.61769">
        <ele>685</ele>
        <time>2019-10-12T15:49:35 02:00</time>
      </trkpt>
      <trkpt lat="45.09896" lon="4.61736">
        <ele>687</ele>
        <time>2019-10-12T15:49:40 02:00</time>
      </trkpt>
      <trkpt lat="45.09909" lon="4.61694">
        <ele>690</ele>
        <time>2019-10-12T15:49:45 02:00</time>
      </trkpt>
      <trkpt lat="45.0991" lon="4.61649">
        <ele>692</ele>
        <time>2019-10-12T15:49:50 02:00</time>
      </trkpt>
      <trkpt lat="45.09894" lon="4.6154">
        <ele>692</ele>
        <time>2019-10-12T15:49:55 02:00</time>
      </trkpt>
      <trkpt lat="45.09881" lon="4.61499">
        <ele>690</ele>
        <time>2019-10-12T15:50:00 02:00</time>
      </trkpt>
      <trkpt lat="45.09848" lon="4.61466">
        <ele>693</ele>
        <time>2019-10-12T15:50:05 02:00</time>
      </trkpt>
      <trkpt lat="45.09819" lon="4.61441">
        <ele>695</ele>
        <time>2019-10-12T15:50:10 02:00</time>
      </trkpt>
      <trkpt lat="45.09802" lon="4.61412">
        <ele>697</ele>
        <time>2019-10-12T15:50:15 02:00</time>
      </trkpt>
      <trkpt lat="45.09794" lon="4.61385">
        <ele>700</ele>
        <time>2019-10-12T15:50:20 02:00</time>
      </trkpt>
      <trkpt lat="45.09784" lon="4.61316">
        <ele>704</ele>
        <time>2019-10-12T15:50:25 02:00</time>
      </trkpt>
      <trkpt lat="45.09769" lon="4.61206">
        <ele>707</ele>
        <time>2019-10-12T15:50:30 02:00</time>
      </trkpt>
      <trkpt lat="45.09757" lon="4.61145">
        <ele>707</ele>
        <time>2019-10-12T15:50:35 02:00</time>
      </trkpt>
      <trkpt lat="45.09737" lon="4.61109">
        <ele>710</ele>
        <time>2019-10-12T15:50:40 02:00</time>
      </trkpt>
      <trkpt lat="45.09723" lon="4.61062">
        <ele>710</ele>
        <time>2019-10-12T15:50:45 02:00</time>
      </trkpt>
      <trkpt lat="45.09713" lon="4.60998">
        <ele>707</ele>
        <time>2019-10-12T15:50:50 02:00</time>
      </trkpt>
      <trkpt lat="45.09684" lon="4.60965">
        <ele>711</ele>
        <time>2019-10-12T15:50:55 02:00</time>
      </trkpt>
      <trkpt lat="45.09695" lon="4.6092">
        <ele>709</ele>
        <time>2019-10-12T15:51:00 02:00</time>
      </trkpt>
      <trkpt lat="45.09683" lon="4.60787">
        <ele>716</ele>
        <time>2019-10-12T15:51:05 02:00</time>
      </trkpt>
      <trkpt lat="45.09674" lon="4.60738">
        <ele>720</ele>
        <time>2019-10-12T15:51:10 02:00</time>
      </trkpt>
      <trkpt lat="45.09662" lon="4.60699">
        <ele>724</ele>
        <time>2019-10-12T15:51:15 02:00</time>
      </trkpt>
      <trkpt lat="45.09639" lon="4.60634">
        <ele>727</ele>
        <time>2019-10-12T15:51:20 02:00</time>
      </trkpt>
      <trkpt lat="45.09621" lon="4.60564">
        <ele>730</ele>
        <time>2019-10-12T15:51:25 02:00</time>
      </trkpt>
      <trkpt lat="45.09612" lon="4.60514">
        <ele>731</ele>
        <time>2019-10-12T15:51:30 02:00</time>
      </trkpt>
      <trkpt lat="45.0961" lon="4.60479">
        <ele>735</ele>
        <time>2019-10-12T15:51:35 02:00</time>
      </trkpt>
      <trkpt lat="45.096" lon="4.6041">
        <ele>740</ele>
        <time>2019-10-12T15:51:40 02:00</time>
      </trkpt>
      <trkpt lat="45.09602" lon="4.60362">
        <ele>741</ele>
        <time>2019-10-12T15:51:45 02:00</time>
      </trkpt>
      <trkpt lat="45.09631" lon="4.60298">
        <ele>747</ele>
        <time>2019-10-12T15:51:50 02:00</time>
      </trkpt>
      <trkpt lat="45.0964" lon="4.60276">
        <ele>748</ele>
        <time>2019-10-12T15:51:55 02:00</time>
      </trkpt>
      <trkpt lat="45.0968" lon="4.60238">
        <ele>759</ele>
        <time>2019-10-12T15:52:00 02:00</time>
      </trkpt>
      <trkpt lat="45.09685" lon="4.60203">
        <ele>758</ele>
        <time>2019-10-12T15:52:05 02:00</time>
      </trkpt>
      <trkpt lat="45.09685" lon="4.60173">
        <ele>755</ele>
        <time>2019-10-12T15:52:10 02:00</time>
      </trkpt>
      <trkpt lat="45.09696" lon="4.60134">
        <ele>759</ele>
        <time>2019-10-12T15:52:15 02:00</time>
      </trkpt>
      <trkpt lat="45.09696" lon="4.60108">
        <ele>758</ele>
        <time>2019-10-12T15:52:20 02:00</time>
      </trkpt>
      <trkpt lat="45.09733" lon="4.59972">
        <ele>768</ele>
        <time>2019-10-12T15:52:25 02:00</time>
      </trkpt>
      <trkpt lat="45.09744" lon="4.59908">
        <ele>774</ele>
        <time>2019-10-12T15:52:30 02:00</time>
      </trkpt>
      <trkpt lat="45.09738" lon="4.59859">
        <ele>777</ele>
        <time>2019-10-12T15:52:35 02:00</time>
      </trkpt>
      <trkpt lat="45.09727" lon="4.59811">
        <ele>777</ele>
        <time>2019-10-12T15:52:40 02:00</time>
      </trkpt>
      <trkpt lat="45.09717" lon="4.59755">
        <ele>778</ele>
        <time>2019-10-12T15:52:45 02:00</time>
      </trkpt>
      <trkpt lat="45.09715" lon="4.59691">
        <ele>781</ele>
        <time>2019-10-12T15:52:50 02:00</time>
      </trkpt>
      <trkpt lat="45.0971" lon="4.59646">
        <ele>780</ele>
        <time>2019-10-12T15:52:55 02:00</time>
      </trkpt>
      <trkpt lat="45.09708" lon="4.59602">
        <ele>779</ele>
        <time>2019-10-12T15:53:00 02:00</time>
      </trkpt>
      <trkpt lat="45.09703" lon="4.59564">
        <ele>778</ele>
        <time>2019-10-12T15:53:05 02:00</time>
      </trkpt>
      <trkpt lat="45.09702" lon="4.59499">
        <ele>778</ele>
        <time>2019-10-12T15:53:10 02:00</time>
      </trkpt>
      <trkpt lat="45.09672" lon="4.59443">
        <ele>788</ele>
        <time>2019-10-12T15:53:15 02:00</time>
      </trkpt>
      <trkpt lat="45.09654" lon="4.59414">
        <ele>792</ele>
        <time>2019-10-12T15:53:20 02:00</time>
      </trkpt>
      <trkpt lat="45.09584" lon="4.59331">
        <ele>805</ele>
        <time>2019-10-12T15:53:25 02:00</time>
      </trkpt>
      <trkpt lat="45.09555" lon="4.59295">
        <ele>805</ele>
        <time>2019-10-12T15:53:30 02:00</time>
      </trkpt>
      <trkpt lat="45.09532" lon="4.59256">
        <ele>805</ele>
        <time>2019-10-12T15:53:35 02:00</time>
      </trkpt>
      <trkpt lat="45.09522" lon="4.59226">
        <ele>806</ele>
        <time>2019-10-12T15:53:40 02:00</time>
      </trkpt>
      <trkpt lat="45.09515" lon="4.59183">
        <ele>808</ele>
        <time>2019-10-12T15:53:45 02:00</time>
      </trkpt>
      <trkpt lat="45.09512" lon="4.59131">
        <ele>811</ele>
        <time>2019-10-12T15:53:50 02:00</time>
      </trkpt>
      <trkpt lat="45.09512" lon="4.59054">
        <ele>816</ele>
        <time>2019-10-12T15:53:55 02:00</time>
      </trkpt>
      <trkpt lat="45.09518" lon="4.58972">
        <ele>823</ele>
        <time>2019-10-12T15:54:00 02:00</time>
      </trkpt>
      <trkpt lat="45.09518" lon="4.58922">
        <ele>827</ele>
        <time>2019-10-12T15:54:05 02:00</time>
      </trkpt>
      <trkpt lat="45.09505" lon="4.58851">
        <ele>829</ele>
        <time>2019-10-12T15:54:10 02:00</time>
      </trkpt>
      <trkpt lat="45.09496" lon="4.58812">
        <ele>827</ele>
        <time>2019-10-12T15:54:15 02:00</time>
      </trkpt>
      <trkpt lat="45.09493" lon="4.58794">
        <ele>826</ele>
        <time>2019-10-12T15:54:20 02:00</time>
      </trkpt>
      <trkpt lat="45.09501" lon="4.58713">
        <ele>826</ele>
        <time>2019-10-12T15:54:25 02:00</time>
      </trkpt>
      <trkpt lat="45.09517" lon="4.58683">
        <ele>826</ele>
        <time>2019-10-12T15:54:30 02:00</time>
      </trkpt>
      <trkpt lat="45.09543" lon="4.58675">
        <ele>827</ele>
        <time>2019-10-12T15:54:35 02:00</time>
      </trkpt>
      <trkpt lat="45.09623" lon="4.58723">
        <ele>838</ele>
        <time>2019-10-12T15:54:40 02:00</time>
      </trkpt>
      <trkpt lat="45.09674" lon="4.58738">
        <ele>843</ele>
        <time>2019-10-12T15:54:45 02:00</time>
      </trkpt>
      <trkpt lat="45.09722" lon="4.58728">
        <ele>845</ele>
        <time>2019-10-12T15:54:50 02:00</time>
      </trkpt>
      <trkpt lat="45.09752" lon="4.5872">
        <ele>847</ele>
        <time>2019-10-12T15:54:55 02:00</time>
      </trkpt>
      <trkpt lat="45.09774" lon="4.58722">
        <ele>849</ele>
        <time>2019-10-12T15:55:00 02:00</time>
      </trkpt>
      <trkpt lat="45.09802" lon="4.58703">
        <ele>848</ele>
        <time>2019-10-12T15:55:05 02:00</time>
      </trkpt>
      <trkpt lat="45.09858" lon="4.58675">
        <ele>849</ele>
        <time>2019-10-12T15:55:10 02:00</time>
      </trkpt>
      <trkpt lat="45.09878" lon="4.58659">
        <ele>849</ele>
        <time>2019-10-12T15:55:15 02:00</time>
      </trkpt>
      <trkpt lat="45.09901" lon="4.58672">
        <ele>851</ele>
        <time>2019-10-12T15:55:20 02:00</time>
      </trkpt>
      <trkpt lat="45.09926" lon="4.58652">
        <ele>851</ele>
        <time>2019-10-12T15:55:25 02:00</time>
      </trkpt>
      <trkpt lat="45.0992" lon="4.58607">
        <ele>853</ele>
        <time>2019-10-12T15:55:30 02:00</time>
      </trkpt>
      <trkpt lat="45.0993" lon="4.58573">
        <ele>854</ele>
        <time>2019-10-12T15:55:35 02:00</time>
      </trkpt>
      <trkpt lat="45.09982" lon="4.58487">
        <ele>862</ele>
        <time>2019-10-12T15:55:40 02:00</time>
      </trkpt>
      <trkpt lat="45.09997" lon="4.58457">
        <ele>869</ele>
        <time>2019-10-12T15:55:45 02:00</time>
      </trkpt>
      <trkpt lat="45.10091" lon="4.58463">
        <ele>869</ele>
        <time>2019-10-12T15:55:50 02:00</time>
      </trkpt>
      <trkpt lat="45.10177" lon="4.58448">
        <ele>867</ele>
        <time>2019-10-12T15:55:55 02:00</time>
      </trkpt>
      <trkpt lat="45.10206" lon="4.58438">
        <ele>873</ele>
        <time>2019-10-12T15:56:00 02:00</time>
      </trkpt>
      <trkpt lat="45.10239" lon="4.58436">
        <ele>877</ele>
        <time>2019-10-12T15:56:05 02:00</time>
      </trkpt>
      <trkpt lat="45.10253" lon="4.58481">
        <ele>871</ele>
        <time>2019-10-12T15:56:10 02:00</time>
      </trkpt>
      <trkpt lat="45.10321" lon="4.58569">
        <ele>881</ele>
        <time>2019-10-12T15:56:15 02:00</time>
      </trkpt>
      <trkpt lat="45.10357" lon="4.58584">
        <ele>886</ele>
        <time>2019-10-12T15:56:20 02:00</time>
      </trkpt>
      <trkpt lat="45.1041" lon="4.58592">
        <ele>892</ele>
        <time>2019-10-12T15:56:25 02:00</time>
      </trkpt>
      <trkpt lat="45.10454" lon="4.58543">
        <ele>901</ele>
        <time>2019-10-12T15:56:30 02:00</time>
      </trkpt>
      <trkpt lat="45.10492" lon="4.58487">
        <ele>913</ele>
        <time>2019-10-12T15:56:35 02:00</time>
      </trkpt>
      <trkpt lat="45.10547" lon="4.58472">
        <ele>909</ele>
        <time>2019-10-12T15:56:40 02:00</time>
      </trkpt>
      <trkpt lat="45.1058" lon="4.58459">
        <ele>906</ele>
        <time>2019-10-12T15:56:45 02:00</time>
      </trkpt>
      <trkpt lat="45.10632" lon="4.58399">
        <ele>911</ele>
        <time>2019-10-12T15:56:50 02:00</time>
      </trkpt>
      <trkpt lat="45.10686" lon="4.58367">
        <ele>902</ele>
        <time>2019-10-12T15:56:55 02:00</time>
      </trkpt>
      <trkpt lat="45.10709" lon="4.58339">
        <ele>899</ele>
        <time>2019-10-12T15:57:00 02:00</time>
      </trkpt>
      <trkpt lat="45.10733" lon="4.58253">
        <ele>905</ele>
        <time>2019-10-12T15:57:05 02:00</time>
      </trkpt>
      <trkpt lat="45.10739" lon="4.58236">
        <ele>906</ele>
        <time>2019-10-12T15:57:10 02:00</time>
      </trkpt>
      <trkpt lat="45.10785" lon="4.58215">
        <ele>902</ele>
        <time>2019-10-12T15:57:15 02:00</time>
      </trkpt>
      <trkpt lat="45.10809" lon="4.58212">
        <ele>900</ele>
        <time>2019-10-12T15:57:20 02:00</time>
      </trkpt>
      <trkpt lat="45.1088" lon="4.58116">
        <ele>903</ele>
        <time>2019-10-12T15:57:25 02:00</time>
      </trkpt>
      <trkpt lat="45.10909" lon="4.58081">
        <ele>901</ele>
        <time>2019-10-12T15:57:30 02:00</time>
      </trkpt>
      <trkpt lat="45.10919" lon="4.58069">
        <ele>903</ele>
        <time>2019-10-12T15:57:35 02:00</time>
      </trkpt>
      <trkpt lat="45.10928" lon="4.58079">
        <ele>902</ele>
        <time>2019-10-12T15:57:40 02:00</time>
      </trkpt>
      <trkpt lat="45.10953" lon="4.58161">
        <ele>893</ele>
        <time>2019-10-12T15:57:45 02:00</time>
      </trkpt>
      <trkpt lat="45.10971" lon="4.58175">
        <ele>893</ele>
        <time>2019-10-12T15:57:50 02:00</time>
      </trkpt>
      <trkpt lat="45.11019" lon="4.58193">
        <ele>894</ele>
        <time>2019-10-12T15:57:55 02:00</time>
      </trkpt>
      <trkpt lat="45.11048" lon="4.58205">
        <ele>895</ele>
        <time>2019-10-12T15:58:00 02:00</time>
      </trkpt>
      <trkpt lat="45.11057" lon="4.58216">
        <ele>895</ele>
        <time>2019-10-12T15:58:05 02:00</time>
      </trkpt>
      <trkpt lat="45.1109" lon="4.5805">
        <ele>911</ele>
        <time>2019-10-12T15:58:10 02:00</time>
      </trkpt>
      <trkpt lat="45.11109" lon="4.58025">
        <ele>915</ele>
        <time>2019-10-12T15:58:15 02:00</time>
      </trkpt>
      <trkpt lat="45.11156" lon="4.58076">
        <ele>905</ele>
        <time>2019-10-12T15:58:20 02:00</time>
      </trkpt>
      <trkpt lat="45.11201" lon="4.5808">
        <ele>909</ele>
        <time>2019-10-12T15:58:25 02:00</time>
      </trkpt>
      <trkpt lat="45.11313" lon="4.58138">
        <ele>912</ele>
        <time>2019-10-12T15:58:30 02:00</time>
      </trkpt>
      <trkpt lat="45.11362" lon="4.58166">
        <ele>908</ele>
        <time>2019-10-12T15:58:35 02:00</time>
      </trkpt>
      <trkpt lat="45.11392" lon="4.58179">
        <ele>907</ele>
        <time>2019-10-12T15:58:40 02:00</time>
      </trkpt>
      <trkpt lat="45.1144" lon="4.58177">
        <ele>909</ele>
        <time>2019-10-12T15:58:45 02:00</time>
      </trkpt>
      <trkpt lat="45.1146" lon="4.5819">
        <ele>910</ele>
        <time>2019-10-12T15:58:50 02:00</time>
      </trkpt>
      <trkpt lat="45.11452" lon="4.58233">
        <ele>909</ele>
        <time>2019-10-12T15:58:55 02:00</time>
      </trkpt>
      <trkpt lat="45.11471" lon="4.58331">
        <ele>913</ele>
        <time>2019-10-12T15:59:00 02:00</time>
      </trkpt>
      <trkpt lat="45.11502" lon="4.58424">
        <ele>912</ele>
        <time>2019-10-12T15:59:05 02:00</time>
      </trkpt>
      <trkpt lat="45.11504" lon="4.58473">
        <ele>902</ele>
        <time>2019-10-12T15:59:10 02:00</time>
      </trkpt>
      <trkpt lat="45.1154" lon="4.58522">
        <ele>903</ele>
        <time>2019-10-12T15:59:15 02:00</time>
      </trkpt>
      <trkpt lat="45.11572" lon="4.5864">
        <ele>889</ele>
        <time>2019-10-12T15:59:20 02:00</time>
      </trkpt>
      <trkpt lat="45.11625" lon="4.58741">
        <ele>881</ele>
        <time>2019-10-12T15:59:25 02:00</time>
      </trkpt>
      <trkpt lat="45.11648" lon="4.58765">
        <ele>883</ele>
        <time>2019-10-12T15:59:30 02:00</time>
      </trkpt>
      <trkpt lat="45.11678" lon="4.58778">
        <ele>884</ele>
        <time>2019-10-12T15:59:35 02:00</time>
      </trkpt>
      <trkpt lat="45.11711" lon="4.58859">
        <ele>880</ele>
        <time>2019-10-12T15:59:40 02:00</time>
      </trkpt>
      <trkpt lat="45.11737" lon="4.58941">
        <ele>885</ele>
        <time>2019-10-12T15:59:45 02:00</time>
      </trkpt>
      <trkpt lat="45.1172" lon="4.5901">
        <ele>885</ele>
        <time>2019-10-12T15:59:50 02:00</time>
      </trkpt>
      <trkpt lat="45.11705" lon="4.59063">
        <ele>880</ele>
        <time>2019-10-12T15:59:55 02:00</time>
      </trkpt>
      <trkpt lat="45.11717" lon="4.59153">
        <ele>878</ele>
        <time>2019-10-12T16:00:00 02:00</time>
      </trkpt>
      <trkpt lat="45.11723" lon="4.59185">
        <ele>877</ele>
        <time>2019-10-12T16:00:05 02:00</time>
      </trkpt>
      <trkpt lat="45.11764" lon="4.59231">
        <ele>882</ele>
        <time>2019-10-12T16:00:10 02:00</time>
      </trkpt>
      <trkpt lat="45.11796" lon="4.59265">
        <ele>886</ele>
        <time>2019-10-12T16:00:15 02:00</time>
      </trkpt>
      <trkpt lat="45.11837" lon="4.59396">
        <ele>884</ele>
        <time>2019-10-12T16:00:20 02:00</time>
      </trkpt>
      <trkpt lat="45.11849" lon="4.59443">
        <ele>884</ele>
        <time>2019-10-12T16:00:25 02:00</time>
      </trkpt>
      <trkpt lat="45.11884" lon="4.59525">
        <ele>893</ele>
        <time>2019-10-12T16:00:30 02:00</time>
      </trkpt>
      <trkpt lat="45.11893" lon="4.59576">
        <ele>895</ele>
        <time>2019-10-12T16:00:35 02:00</time>
      </trkpt>
      <trkpt lat="45.11887" lon="4.59628">
        <ele>893</ele>
        <time>2019-10-12T16:00:40 02:00</time>
      </trkpt>
      <trkpt lat="45.11854" lon="4.59731">
        <ele>883</ele>
        <time>2019-10-12T16:00:45 02:00</time>
      </trkpt>
      <trkpt lat="45.11834" lon="4.59797">
        <ele>876</ele>
        <time>2019-10-12T16:00:50 02:00</time>
      </trkpt>
      <trkpt lat="45.11831" lon="4.59849">
        <ele>875</ele>
        <time>2019-10-12T16:00:55 02:00</time>
      </trkpt>
      <trkpt lat="45.1184" lon="4.59917">
        <ele>876</ele>
        <time>2019-10-12T16:01:00 02:00</time>
      </trkpt>
      <trkpt lat="45.11864" lon="4.59986">
        <ele>883</ele>
        <time>2019-10-12T16:01:05 02:00</time>
      </trkpt>
      <trkpt lat="45.1189" lon="4.60112">
        <ele>882</ele>
        <time>2019-10-12T16:01:10 02:00</time>
      </trkpt>
      <trkpt lat="45.11901" lon="4.60203">
        <ele>881</ele>
        <time>2019-10-12T16:01:15 02:00</time>
      </trkpt>
      <trkpt lat="45.11901" lon="4.60267">
        <ele>881</ele>
        <time>2019-10-12T16:01:20 02:00</time>
      </trkpt>
      <trkpt lat="45.11802" lon="4.60449">
        <ele>861</ele>
        <time>2019-10-12T16:01:25 02:00</time>
      </trkpt>
      <trkpt lat="45.11793" lon="4.60471">
        <ele>859</ele>
        <time>2019-10-12T16:01:30 02:00</time>
      </trkpt>
      <trkpt lat="45.11842" lon="4.60531">
        <ele>859</ele>
        <time>2019-10-12T16:01:35 02:00</time>
      </trkpt>
      <trkpt lat="45.11895" lon="4.60559">
        <ele>862</ele>
        <time>2019-10-12T16:01:40 02:00</time>
      </trkpt>
      <trkpt lat="45.11958" lon="4.60574">
        <ele>869</ele>
        <time>2019-10-12T16:01:45 02:00</time>
      </trkpt>
      <trkpt lat="45.11987" lon="4.60617">
        <ele>862</ele>
        <time>2019-10-12T16:01:50 02:00</time>
      </trkpt>
      <trkpt lat="45.11988" lon="4.60703">
        <ele>844</ele>
        <time>2019-10-12T16:01:55 02:00</time>
      </trkpt>
      <trkpt lat="45.12004" lon="4.60793">
        <ele>847</ele>
        <time>2019-10-12T16:02:00 02:00</time>
      </trkpt>
      <trkpt lat="45.12001" lon="4.60812">
        <ele>847</ele>
        <time>2019-10-12T16:02:05 02:00</time>
      </trkpt>
      <trkpt lat="45.11951" lon="4.60859">
        <ele>834</ele>
        <time>2019-10-12T16:02:10 02:00</time>
      </trkpt>
      <trkpt lat="45.11929" lon="4.60906">
        <ele>832</ele>
        <time>2019-10-12T16:02:15 02:00</time>
      </trkpt>
      <trkpt lat="45.11911" lon="4.60956">
        <ele>827</ele>
        <time>2019-10-12T16:02:20 02:00</time>
      </trkpt>
      <trkpt lat="45.11902" lon="4.60977">
        <ele>824</ele>
        <time>2019-10-12T16:02:25 02:00</time>
      </trkpt>
      <trkpt lat="45.11914" lon="4.61035">
        <ele>824</ele>
        <time>2019-10-12T16:02:30 02:00</time>
      </trkpt>
      <trkpt lat="45.12017" lon="4.6119">
        <ele>820</ele>
        <time>2019-10-12T16:02:35 02:00</time>
      </trkpt>
      <trkpt lat="45.12122" lon="4.61213">
        <ele>822</ele>
        <time>2019-10-12T16:02:40 02:00</time>
      </trkpt>
      <trkpt lat="45.12193" lon="4.61233">
        <ele>819</ele>
        <time>2019-10-12T16:02:45 02:00</time>
      </trkpt>
      <trkpt lat="45.12228" lon="4.61211">
        <ele>830</ele>
        <time>2019-10-12T16:02:50 02:00</time>
      </trkpt>
      <trkpt lat="45.12259" lon="4.61243">
        <ele>826</ele>
        <time>2019-10-12T16:02:55 02:00</time>
      </trkpt>
      <trkpt lat="45.12276" lon="4.61303">
        <ele>820</ele>
        <time>2019-10-12T16:03:00 02:00</time>
      </trkpt>
      <trkpt lat="45.12288" lon="4.61492">
        <ele>810</ele>
        <time>2019-10-12T16:03:05 02:00</time>
      </trkpt>
      <trkpt lat="45.12272" lon="4.61535">
        <ele>806</ele>
        <time>2019-10-12T16:03:10 02:00</time>
      </trkpt>
      <trkpt lat="45.12234" lon="4.61604">
        <ele>801</ele>
        <time>2019-10-12T16:03:15 02:00</time>
      </trkpt>
      <trkpt lat="45.12213" lon="4.61653">
        <ele>803</ele>
        <time>2019-10-12T16:03:20 02:00</time>
      </trkpt>
      <trkpt lat="45.1215" lon="4.61698">
        <ele>790</ele>
        <time>2019-10-12T16:03:25 02:00</time>
      </trkpt>
      <trkpt lat="45.12119" lon="4.61754">
        <ele>787</ele>
        <time>2019-10-12T16:03:30 02:00</time>
      </trkpt>
      <trkpt lat="45.12105" lon="4.61833">
        <ele>782</ele>
        <time>2019-10-12T16:03:35 02:00</time>
      </trkpt>
      <trkpt lat="45.12137" lon="4.619">
        <ele>790</ele>
        <time>2019-10-12T16:03:40 02:00</time>
      </trkpt>
      <trkpt lat="45.12211" lon="4.61947">
        <ele>814</ele>
        <time>2019-10-12T16:03:45 02:00</time>
      </trkpt>
      <trkpt lat="45.12184" lon="4.62033">
        <ele>810</ele>
        <time>2019-10-12T16:03:50 02:00</time>
      </trkpt>
      <trkpt lat="45.12175" lon="4.62177">
        <ele>807</ele>
        <time>2019-10-12T16:03:55 02:00</time>
      </trkpt>
      <trkpt lat="45.12166" lon="4.62245">
        <ele>805</ele>
        <time>2019-10-12T16:04:00 02:00</time>
      </trkpt>
      <trkpt lat="45.12125" lon="4.6228">
        <ele>807</ele>
        <time>2019-10-12T16:04:05 02:00</time>
      </trkpt>
      <trkpt lat="45.12055" lon="4.62235">
        <ele>800</ele>
        <time>2019-10-12T16:04:10 02:00</time>
      </trkpt>
      <trkpt lat="45.1196" lon="4.6216">
        <ele>786</ele>
        <time>2019-10-12T16:04:15 02:00</time>
      </trkpt>
      <trkpt lat="45.11896" lon="4.62142">
        <ele>788</ele>
        <time>2019-10-12T16:04:20 02:00</time>
      </trkpt>
      <trkpt lat="45.11852" lon="4.62123">
        <ele>788</ele>
        <time>2019-10-12T16:04:25 02:00</time>
      </trkpt>
      <trkpt lat="45.11819" lon="4.62061">
        <ele>780</ele>
        <time>2019-10-12T16:04:30 02:00</time>
      </trkpt>
      <trkpt lat="45.11787" lon="4.62039">
        <ele>776</ele>
        <time>2019-10-12T16:04:35 02:00</time>
      </trkpt>
      <trkpt lat="45.11722" lon="4.62024">
        <ele>770</ele>
        <time>2019-10-12T16:04:40 02:00</time>
      </trkpt>
      <trkpt lat="45.1169" lon="4.62011">
        <ele>763</ele>
        <time>2019-10-12T16:04:45 02:00</time>
      </trkpt>
      <trkpt lat="45.1162" lon="4.62007">
        <ele>750</ele>
        <time>2019-10-12T16:04:50 02:00</time>
      </trkpt>
      <trkpt lat="45.11543" lon="4.62011">
        <ele>740</ele>
        <time>2019-10-12T16:04:55 02:00</time>
      </trkpt>
      <trkpt lat="45.11465" lon="4.62005">
        <ele>729</ele>
        <time>2019-10-12T16:05:00 02:00</time>
      </trkpt>
      <trkpt lat="45.11355" lon="4.61962">
        <ele>710</ele>
        <time>2019-10-12T16:05:05 02:00</time>
      </trkpt>
      <trkpt lat="45.1129" lon="4.61921">
        <ele>700</ele>
        <time>2019-10-12T16:05:10 02:00</time>
      </trkpt>
      <trkpt lat="45.11147" lon="4.61836">
        <ele>688</ele>
        <time>2019-10-12T16:05:15 02:00</time>
      </trkpt>
      <trkpt lat="45.11143" lon="4.61851">
        <ele>685</ele>
        <time>2019-10-12T16:05:20 02:00</time>
      </trkpt>
      <trkpt lat="45.11172" lon="4.61914">
        <ele>680</ele>
        <time>2019-10-12T16:05:25 02:00</time>
      </trkpt>
      <trkpt lat="45.11218" lon="4.61947">
        <ele>682</ele>
        <time>2019-10-12T16:05:30 02:00</time>
      </trkpt>
      <trkpt lat="45.11273" lon="4.6202">
        <ele>684</ele>
        <time>2019-10-12T16:05:35 02:00</time>
      </trkpt>
      <trkpt lat="45.113" lon="4.62096">
        <ele>680</ele>
        <time>2019-10-12T16:05:40 02:00</time>
      </trkpt>
      <trkpt lat="45.11298" lon="4.62155">
        <ele>675</ele>
        <time>2019-10-12T16:05:45 02:00</time>
      </trkpt>
      <trkpt lat="45.11289" lon="4.62208">
        <ele>670</ele>
        <time>2019-10-12T16:05:50 02:00</time>
      </trkpt>
      <trkpt lat="45.11289" lon="4.62267">
        <ele>666</ele>
        <time>2019-10-12T16:05:55 02:00</time>
      </trkpt>
      <trkpt lat="45.11309" lon="4.62342">
        <ele>664</ele>
        <time>2019-10-12T16:06:00 02:00</time>
      </trkpt>
      <trkpt lat="45.11333" lon="4.62385">
        <ele>661</ele>
        <time>2019-10-12T16:06:05 02:00</time>
      </trkpt>
      <trkpt lat="45.11344" lon="4.62401">
        <ele>660</ele>
        <time>2019-10-12T16:06:10 02:00</time>
      </trkpt>
      <trkpt lat="45.1139" lon="4.62419">
        <ele>667</ele>
        <time>2019-10-12T16:06:15 02:00</time>
      </trkpt>
      <trkpt lat="45.11398" lon="4.62436">
        <ele>669</ele>
        <time>2019-10-12T16:06:20 02:00</time>
      </trkpt>
      <trkpt lat="45.11393" lon="4.62455">
        <ele>669</ele>
        <time>2019-10-12T16:06:25 02:00</time>
      </trkpt>
      <trkpt lat="45.11355" lon="4.6249">
        <ele>660</ele>
        <time>2019-10-12T16:06:30 02:00</time>
      </trkpt>
      <trkpt lat="45.11312" lon="4.62531">
        <ele>654</ele>
        <time>2019-10-12T16:06:35 02:00</time>
      </trkpt>
      <trkpt lat="45.1128" lon="4.62567">
        <ele>649</ele>
        <time>2019-10-12T16:06:40 02:00</time>
      </trkpt>
      <trkpt lat="45.11263" lon="4.62614">
        <ele>646</ele>
        <time>2019-10-12T16:06:45 02:00</time>
      </trkpt>
      <trkpt lat="45.11276" lon="4.62654">
        <ele>650</ele>
        <time>2019-10-12T16:06:50 02:00</time>
      </trkpt>
      <trkpt lat="45.11276" lon="4.62667">
        <ele>650</ele>
        <time>2019-10-12T16:06:55 02:00</time>
      </trkpt>
      <trkpt lat="45.11256" lon="4.62622">
        <ele>643</ele>
        <time>2019-10-12T16:07:00 02:00</time>
      </trkpt>
      <trkpt lat="45.11252" lon="4.6258">
        <ele>642</ele>
        <time>2019-10-12T16:07:05 02:00</time>
      </trkpt>
      <trkpt lat="45.11261" lon="4.62539">
        <ele>642</ele>
        <time>2019-10-12T16:07:10 02:00</time>
      </trkpt>
      <trkpt lat="45.1124" lon="4.62565">
        <ele>639</ele>
        <time>2019-10-12T16:07:15 02:00</time>
      </trkpt>
      <trkpt lat="45.11233" lon="4.62597">
        <ele>638</ele>
        <time>2019-10-12T16:07:20 02:00</time>
      </trkpt>
      <trkpt lat="45.11239" lon="4.62641">
        <ele>640</ele>
        <time>2019-10-12T16:07:25 02:00</time>
      </trkpt>
      <trkpt lat="45.11238" lon="4.62664">
        <ele>639</ele>
        <time>2019-10-12T16:07:30 02:00</time>
      </trkpt>
      <trkpt lat="45.1123" lon="4.62698">
        <ele>638</ele>
        <time>2019-10-12T16:07:35 02:00</time>
      </trkpt>
      <trkpt lat="45.1124" lon="4.62775">
        <ele>638</ele>
        <time>2019-10-12T16:07:40 02:00</time>
      </trkpt>
      <trkpt lat="45.11214" lon="4.62779">
        <ele>640</ele>
        <time>2019-10-12T16:07:45 02:00</time>
      </trkpt>
      <trkpt lat="45.11178" lon="4.62699">
        <ele>635</ele>
        <time>2019-10-12T16:07:50 02:00</time>
      </trkpt>
      <trkpt lat="45.1116" lon="4.62683">
        <ele>633</ele>
        <time>2019-10-12T16:07:55 02:00</time>
      </trkpt>
      <trkpt lat="45.11125" lon="4.62687">
        <ele>639</ele>
        <time>2019-10-12T16:08:00 02:00</time>
      </trkpt>
      <trkpt lat="45.11094" lon="4.62655">
        <ele>637</ele>
        <time>2019-10-12T16:08:05 02:00</time>
      </trkpt>
      <trkpt lat="45.11074" lon="4.62639">
        <ele>637</ele>
        <time>2019-10-12T16:08:10 02:00</time>
      </trkpt>
      <trkpt lat="45.11036" lon="4.62641">
        <ele>646</ele>
        <time>2019-10-12T16:08:15 02:00</time>
      </trkpt>
      <trkpt lat="45.11021" lon="4.62647">
        <ele>651</ele>
        <time>2019-10-12T16:08:20 02:00</time>
      </trkpt>
      <trkpt lat="45.11047" lon="4.62666">
        <ele>649</ele>
        <time>2019-10-12T16:08:25 02:00</time>
      </trkpt>
      <trkpt lat="45.1106" lon="4.62673">
        <ele>648</ele>
        <time>2019-10-12T16:08:30 02:00</time>
      </trkpt>
      <trkpt lat="45.11056" lon="4.62695">
        <ele>655</ele>
        <time>2019-10-12T16:08:35 02:00</time>
      </trkpt>
      <trkpt lat="45.11019" lon="4.62691">
        <ele>663</ele>
        <time>2019-10-12T16:08:40 02:00</time>
      </trkpt>
      <trkpt lat="45.11006" lon="4.62682">
        <ele>664</ele>
        <time>2019-10-12T16:08:45 02:00</time>
      </trkpt>
      <trkpt lat="45.11003" lon="4.6267">
        <ele>661</ele>
        <time>2019-10-12T16:08:50 02:00</time>
      </trkpt>
      <trkpt lat="45.10965" lon="4.62664">
        <ele>670</ele>
        <time>2019-10-12T16:08:55 02:00</time>
      </trkpt>
      <trkpt lat="45.10928" lon="4.62636">
        <ele>672</ele>
        <time>2019-10-12T16:09:00 02:00</time>
      </trkpt>
      <trkpt lat="45.10887" lon="4.62629">
        <ele>681</ele>
        <time>2019-10-12T16:09:05 02:00</time>
      </trkpt>
      <trkpt lat="45.10794" lon="4.62637">
        <ele>706</ele>
        <time>2019-10-12T16:09:10 02:00</time>
      </trkpt>
      <trkpt lat="45.10744" lon="4.62636">
        <ele>715</ele>
        <time>2019-10-12T16:09:15 02:00</time>
      </trkpt>
      <trkpt lat="45.10733" lon="4.62638">
        <ele>716</ele>
        <time>2019-10-12T16:09:20 02:00</time>
      </trkpt>
      <trkpt lat="45.10714" lon="4.62661">
        <ele>721</ele>
        <time>2019-10-12T16:09:25 02:00</time>
      </trkpt>
      <trkpt lat="45.10639" lon="4.62776">
        <ele>740</ele>
        <time>2019-10-12T16:09:30 02:00</time>
      </trkpt>
      <trkpt lat="45.1062" lon="4.62854">
        <ele>756</ele>
        <time>2019-10-12T16:09:35 02:00</time>
      </trkpt>
      <trkpt lat="45.10604" lon="4.62864">
        <ele>757</ele>
        <time>2019-10-12T16:09:40 02:00</time>
      </trkpt>
      <trkpt lat="45.1055" lon="4.62877">
        <ele>752</ele>
        <time>2019-10-12T16:09:45 02:00</time>
      </trkpt>
      <trkpt lat="45.10523" lon="4.62907">
        <ele>754</ele>
        <time>2019-10-12T16:09:50 02:00</time>
      </trkpt>
      <trkpt lat="45.1051" lon="4.62966">
        <ele>754</ele>
        <time>2019-10-12T16:09:55 02:00</time>
      </trkpt>
      <trkpt lat="45.10513" lon="4.63025">
        <ele>756</ele>
        <time>2019-10-12T16:10:00 02:00</time>
      </trkpt>
      <trkpt lat="45.10511" lon="4.63077">
        <ele>757</ele>
        <time>2019-10-12T16:10:05 02:00</time>
      </trkpt>
      <trkpt lat="45.10507" lon="4.631">
        <ele>757</ele>
        <time>2019-10-12T16:10:10 02:00</time>
      </trkpt>
      <trkpt lat="45.10509" lon="4.6313">
        <ele>759</ele>
        <time>2019-10-12T16:10:15 02:00</time>
      </trkpt>
      <trkpt lat="45.10504" lon="4.63162">
        <ele>759</ele>
        <time>2019-10-12T16:10:20 02:00</time>
      </trkpt>
      <trkpt lat="45.10509" lon="4.63256">
        <ele>757</ele>
        <time>2019-10-12T16:10:25 02:00</time>
      </trkpt>
      <trkpt lat="45.1052" lon="4.63289">
        <ele>760</ele>
        <time>2019-10-12T16:10:30 02:00</time>
      </trkpt>
      <trkpt lat="45.10542" lon="4.63309">
        <ele>765</ele>
        <time>2019-10-12T16:10:35 02:00</time>
      </trkpt>
      <trkpt lat="45.10547" lon="4.63383">
        <ele>760</ele>
        <time>2019-10-12T16:10:40 02:00</time>
      </trkpt>
      <trkpt lat="45.10534" lon="4.63423">
        <ele>755</ele>
        <time>2019-10-12T16:10:45 02:00</time>
      </trkpt>
      <trkpt lat="45.10507" lon="4.63438">
        <ele>752</ele>
        <time>2019-10-12T16:10:50 02:00</time>
      </trkpt>
      <trkpt lat="45.10478" lon="4.63453">
        <ele>751</ele>
        <time>2019-10-12T16:10:55 02:00</time>
      </trkpt>
      <trkpt lat="45.10445" lon="4.63457">
        <ele>748</ele>
        <time>2019-10-12T16:11:00 02:00</time>
      </trkpt>
      <trkpt lat="45.10419" lon="4.63466">
        <ele>747</ele>
        <time>2019-10-12T16:11:05 02:00</time>
      </trkpt>
      <trkpt lat="45.1041" lon="4.63479">
        <ele>747</ele>
        <time>2019-10-12T16:11:10 02:00</time>
      </trkpt>
      <trkpt lat="45.1037" lon="4.63542">
        <ele>744</ele>
        <time>2019-10-12T16:11:15 02:00</time>
      </trkpt>
      <trkpt lat="45.10343" lon="4.63611">
        <ele>742</ele>
        <time>2019-10-12T16:11:20 02:00</time>
      </trkpt>
      <trkpt lat="45.10296" lon="4.63732">
        <ele>733</ele>
        <time>2019-10-12T16:11:25 02:00</time>
      </trkpt>
      <trkpt lat="45.10258" lon="4.63869">
        <ele>726</ele>
        <time>2019-10-12T16:11:30 02:00</time>
      </trkpt>
      <trkpt lat="45.10217" lon="4.63984">
        <ele>719</ele>
        <time>2019-10-12T16:11:35 02:00</time>
      </trkpt>
      <trkpt lat="45.10166" lon="4.6409">
        <ele>714</ele>
        <time>2019-10-12T16:11:40 02:00</time>
      </trkpt>
      <trkpt lat="45.10149" lon="4.64129">
        <ele>713</ele>
        <time>2019-10-12T16:11:45 02:00</time>
      </trkpt>
      <trkpt lat="45.10132" lon="4.64142">
        <ele>709</ele>
        <time>2019-10-12T16:11:50 02:00</time>
      </trkpt>
      <trkpt lat="45.10127" lon="4.64186">
        <ele>713</ele>
        <time>2019-10-12T16:11:55 02:00</time>
      </trkpt>
      <trkpt lat="45.10117" lon="4.64233">
        <ele>717</ele>
        <time>2019-10-12T16:12:00 02:00</time>
      </trkpt>
      <trkpt lat="45.10116" lon="4.64287">
        <ele>720</ele>
        <time>2019-10-12T16:12:05 02:00</time>
      </trkpt>
      <trkpt lat="45.10113" lon="4.64346">
        <ele>721</ele>
        <time>2019-10-12T16:12:10 02:00</time>
      </trkpt>
      <trkpt lat="45.10107" lon="4.64383">
        <ele>721</ele>
        <time>2019-10-12T16:12:15 02:00</time>
      </trkpt>
      <trkpt lat="45.10131" lon="4.64432">
        <ele>729</ele>
        <time>2019-10-12T16:12:20 02:00</time>
      </trkpt>
      <trkpt lat="45.10167" lon="4.64472">
        <ele>736</ele>
        <time>2019-10-12T16:12:25 02:00</time>
      </trkpt>
      <trkpt lat="45.10214" lon="4.64503">
        <ele>729</ele>
        <time>2019-10-12T16:12:30 02:00</time>
      </trkpt>
      <trkpt lat="45.10242" lon="4.64543">
        <ele>718</ele>
        <time>2019-10-12T16:12:35 02:00</time>
      </trkpt>
      <trkpt lat="45.10295" lon="4.64489">
        <ele>713</ele>
        <time>2019-10-12T16:12:40 02:00</time>
      </trkpt>
      <trkpt lat="45.10327" lon="4.64438">
        <ele>714</ele>
        <time>2019-10-12T16:12:45 02:00</time>
      </trkpt>
      <trkpt lat="45.10286" lon="4.64526">
        <ele>709</ele>
        <time>2019-10-12T16:12:50 02:00</time>
      </trkpt>
      <trkpt lat="45.10253" lon="4.64597">
        <ele>705</ele>
        <time>2019-10-12T16:12:55 02:00</time>
      </trkpt>
      <trkpt lat="45.10237" lon="4.6463">
        <ele>700</ele>
        <time>2019-10-12T16:13:00 02:00</time>
      </trkpt>
      <trkpt lat="45.10229" lon="4.64679">
        <ele>690</ele>
        <time>2019-10-12T16:13:05 02:00</time>
      </trkpt>
      <trkpt lat="45.10243" lon="4.64634">
        <ele>698</ele>
        <time>2019-10-12T16:13:10 02:00</time>
      </trkpt>
      <trkpt lat="45.10274" lon="4.64625">
        <ele>690</ele>
        <time>2019-10-12T16:13:15 02:00</time>
      </trkpt>
      <trkpt lat="45.10302" lon="4.64608">
        <ele>684</ele>
        <time>2019-10-12T16:13:20 02:00</time>
      </trkpt>
      <trkpt lat="45.10347" lon="4.64611">
        <ele>671</ele>
        <time>2019-10-12T16:13:25 02:00</time>
      </trkpt>
      <trkpt lat="45.10217" lon="4.64761">
        <ele>674</ele>
        <time>2019-10-12T16:13:30 02:00</time>
      </trkpt>
      <trkpt lat="45.10179" lon="4.64815">
        <ele>675</ele>
        <time>2019-10-12T16:13:35 02:00</time>
      </trkpt>
      <trkpt lat="45.10142" lon="4.64876">
        <ele>670</ele>
        <time>2019-10-12T16:13:40 02:00</time>
      </trkpt>
      <trkpt lat="45.10108" lon="4.6491">
        <ele>664</ele>
        <time>2019-10-12T16:13:45 02:00</time>
      </trkpt>
      <trkpt lat="45.10074" lon="4.64921">
        <ele>662</ele>
        <time>2019-10-12T16:13:50 02:00</time>
      </trkpt>
      <trkpt lat="45.1002" lon="4.64939">
        <ele>656</ele>
        <time>2019-10-12T16:13:55 02:00</time>
      </trkpt>
      <trkpt lat="45.09967" lon="4.64922">
        <ele>652</ele>
        <time>2019-10-12T16:14:00 02:00</time>
      </trkpt>
      <trkpt lat="45.0993" lon="4.64905">
        <ele>648</ele>
        <time>2019-10-12T16:14:05 02:00</time>
      </trkpt>
      <trkpt lat="45.09911" lon="4.64908">
        <ele>645</ele>
        <time>2019-10-12T16:14:10 02:00</time>
      </trkpt>
      <trkpt lat="45.09893" lon="4.64931">
        <ele>642</ele>
        <time>2019-10-12T16:14:15 02:00</time>
      </trkpt>
      <trkpt lat="45.09884" lon="4.64904">
        <ele>640</ele>
        <time>2019-10-12T16:14:20 02:00</time>
      </trkpt>
      <trkpt lat="45.09872" lon="4.64924">
        <ele>638</ele>
        <time>2019-10-12T16:14:25 02:00</time>
      </trkpt>
      <trkpt lat="45.0987" lon="4.64875">
        <ele>637</ele>
        <time>2019-10-12T16:14:30 02:00</time>
      </trkpt>
      <trkpt lat="45.09866" lon="4.64855">
        <ele>635</ele>
        <time>2019-10-12T16:14:35 02:00</time>
      </trkpt>
      <trkpt lat="45.09825" lon="4.64813">
        <ele>628</ele>
        <time>2019-10-12T16:14:40 02:00</time>
      </trkpt>
      <trkpt lat="45.09771" lon="4.64761">
        <ele>624</ele>
        <time>2019-10-12T16:14:45 02:00</time>
      </trkpt>
      <trkpt lat="45.09746" lon="4.64727">
        <ele>622</ele>
        <time>2019-10-12T16:14:50 02:00</time>
      </trkpt>
      <trkpt lat="45.09719" lon="4.64654">
        <ele>623</ele>
        <time>2019-10-12T16:14:55 02:00</time>
      </trkpt>
      <trkpt lat="45.09695" lon="4.64614">
        <ele>620</ele>
        <time>2019-10-12T16:15:00 02:00</time>
      </trkpt>
      <trkpt lat="45.09652" lon="4.64614">
        <ele>616</ele>
        <time>2019-10-12T16:15:05 02:00</time>
      </trkpt>
      <trkpt lat="45.09607" lon="4.64594">
        <ele>614</ele>
        <time>2019-10-12T16:15:10 02:00</time>
      </trkpt>
      <trkpt lat="45.09565" lon="4.64599">
        <ele>617</ele>
        <time>2019-10-12T16:15:15 02:00</time>
      </trkpt>
      <trkpt lat="45.09537" lon="4.64598">
        <ele>621</ele>
        <time>2019-10-12T16:15:20 02:00</time>
      </trkpt>
      <trkpt lat="45.09474" lon="4.64554">
        <ele>623</ele>
        <time>2019-10-12T16:15:25 02:00</time>
      </trkpt>
      <trkpt lat="45.09412" lon="4.6454">
        <ele>627</ele>
        <time>2019-10-12T16:15:30 02:00</time>
      </trkpt>
      <trkpt lat="45.09365" lon="4.64537">
        <ele>629</ele>
        <time>2019-10-12T16:15:35 02:00</time>
      </trkpt>
      <trkpt lat="45.09344" lon="4.64537">
        <ele>630</ele>
        <time>2019-10-12T16:15:40 02:00</time>
      </trkpt>
      <trkpt lat="45.09346" lon="4.6459">
        <ele>637</ele>
        <time>2019-10-12T16:15:45 02:00</time>
      </trkpt>
      <trkpt lat="45.09366" lon="4.64656">
        <ele>641</ele>
        <time>2019-10-12T16:15:50 02:00</time>
      </trkpt>
      <trkpt lat="45.09377" lon="4.64781">
        <ele>644</ele>
        <time>2019-10-12T16:15:55 02:00</time>
      </trkpt>
      <trkpt lat="45.09374" lon="4.64964">
        <ele>637</ele>
        <time>2019-10-12T16:16:00 02:00</time>
      </trkpt>
      <trkpt lat="45.09405" lon="4.64962">
        <ele>635</ele>
        <time>2019-10-12T16:16:05 02:00</time>
      </trkpt>
      <trkpt lat="45.09419" lon="4.64976">
        <ele>633</ele>
        <time>2019-10-12T16:16:10 02:00</time>
      </trkpt>
      <trkpt lat="45.09427" lon="4.65005">
        <ele>631</ele>
        <time>2019-10-12T16:16:15 02:00</time>
      </trkpt>
      <trkpt lat="45.09427" lon="4.65036">
        <ele>628</ele>
        <time>2019-10-12T16:16:20 02:00</time>
      </trkpt>
      <trkpt lat="45.09408" lon="4.65056">
        <ele>628</ele>
        <time>2019-10-12T16:16:25 02:00</time>
      </trkpt>
      <trkpt lat="45.09391" lon="4.65069">
        <ele>628</ele>
        <time>2019-10-12T16:16:30 02:00</time>
      </trkpt>
      <trkpt lat="45.09401" lon="4.65161">
        <ele>621</ele>
        <time>2019-10-12T16:16:35 02:00</time>
      </trkpt>
      <trkpt lat="45.09397" lon="4.65208">
        <ele>619</ele>
        <time>2019-10-12T16:16:40 02:00</time>
      </trkpt>
      <trkpt lat="45.09419" lon="4.65228">
        <ele>617</ele>
        <time>2019-10-12T16:16:45 02:00</time>
      </trkpt>
    </trkseg>
  </trk>
</gpx>